Time;durP1;ratioP1;P1;durP2;ratioP2;P2;SDS_P1;SDS_P2;PMS_P1;PMS_P2;Temp;Humidity;BMP_temperature;BMP_pressure;BME280_temperature;BME280_humidity;BME280_pressure;Samples;Min_cycle;Max_cycle;Signal;HPM_P1;HPM_P2
2023/07/15 00:00:31;;;;;;;15.50;7.15;;;;;;;27.02;56.27;99712.91;3083940;28;20050;-71
2023/07/15 00:02:04;;;;;;;11.82;6.80;;;;;;;27.01;56.03;99713.91;3081042;28;20047;-72
2023/07/15 00:03:37;;;;;;;22.67;7.85;;;;;;;27.03;56.01;99722.56;3073598;28;20062;-71
2023/07/15 00:05:15;;;;;;;;;;;;;;;26.84;56.09;99717.72;3082512;28;20109;-71
2023/07/15 00:06:47;;;;;;;14.73;7.60;;;;;;;26.91;56.19;99716.81;3084150;28;19944;-71
2023/07/15 00:08:18;;;;;;;12.65;7.28;;;;;;;26.95;56.56;99719.97;3083915;28;20051;-71
2023/07/15 00:09:49;;;;;;;17.88;7.45;;;;;;;26.96;56.82;99724.31;3084440;28;20073;-71
2023/07/15 00:11:26;;;;;;;11.63;6.90;;;;;;;26.96;56.85;99713.63;3084421;28;20063;-71
2023/07/15 00:12:57;;;;;;;11.80;6.90;;;;;;;26.92;57.17;99713.13;3084239;28;20507;-71
2023/07/15 00:14:29;;;;;;;16.60;7.70;;;;;;;26.90;56.89;99712.47;3084264;28;20057;-71
2023/07/15 00:16:00;;;;;;;21.95;7.85;;;;;;;26.88;57.21;99722.50;3084222;28;20133;-71
2023/07/15 00:17:32;;;;;;;21.13;7.65;;;;;;;26.87;57.59;99717.34;3075377;28;20553;-71
2023/07/15 00:19:05;;;;;;;13.68;7.05;;;;;;;26.86;57.33;99719.19;3076612;28;20047;-71
2023/07/15 00:20:37;;;;;;;17.25;7.75;;;;;;;26.82;57.52;99719.72;3083778;28;20658;-71
2023/07/15 00:22:09;;;;;;;10.98;6.00;;;;;;;26.81;57.04;99723.41;3081350;28;20058;-71
2023/07/15 00:23:41;;;;;;;15.10;6.40;;;;;;;26.76;56.88;99721.25;3074415;28;20392;-71
2023/07/15 00:25:15;;;;;;;20.23;5.65;;;;;;;26.74;56.82;99721.44;3084165;28;20050;-71
2023/07/15 00:26:47;;;;;;;14.88;5.78;;;;;;;26.72;56.24;99727.97;3084107;28;20070;-71
2023/07/15 00:28:19;;;;;;;10.73;6.00;;;;;;;26.71;56.08;99727.13;3083920;28;20062;-71
2023/07/15 00:29:50;;;;;;;12.60;5.47;;;;;;;26.71;55.91;99731.63;3084274;28;20547;-71
2023/07/15 00:31:23;;;;;;;15.82;5.80;;;;;;;26.67;55.45;99724.97;3080625;28;20315;-71
2023/07/15 00:32:53;;;;;;;10.40;5.28;;;;;;;26.65;55.41;99735.00;3072256;28;20436;-71
2023/07/15 00:34:26;;;;;;;8.35;4.85;;;;;;;26.61;55.21;99736.34;3082371;28;20117;-71
2023/07/15 00:35:57;;;;;;;7.53;4.70;;;;;;;26.55;54.78;99730.69;3084027;28;20054;-71
2023/07/15 00:37:29;;;;;;;10.73;4.95;;;;;;;26.58;54.87;99731.38;3083644;28;20047;-71
2023/07/15 00:39:00;;;;;;;9.40;4.50;;;;;;;26.54;54.99;99736.22;3083879;28;20059;-71
2023/07/15 00:40:35;;;;;;;9.07;4.78;;;;;;;26.50;54.44;99727.75;3084249;28;20082;-71
2023/07/15 00:42:12;;;;;;;10.07;4.65;;;;;;;26.44;54.42;99733.72;3084074;28;20047;-71
2023/07/15 00:43:51;;;;;;;8.93;4.55;;;;;;;26.40;54.52;99736.91;3083409;28;20055;-71
2023/07/15 00:45:23;;;;;;;13.10;5.03;;;;;;;26.38;54.55;99736.25;3084029;28;20050;-71
2023/07/15 00:47:28;;;;;;;9.45;4.60;;;;;;;26.35;54.71;99734.75;3073481;28;20055;-71
2023/07/15 00:49:03;;;;;;;8.30;4.93;;;;;;;26.30;54.39;99735.28;3082192;28;20050;-71
2023/07/15 00:50:39;;;;;;;8.68;4.28;;;;;;;26.26;54.74;99733.13;3083815;28;20548;-71
2023/07/15 00:52:13;;;;;;;7.68;4.30;;;;;;;26.24;54.59;99735.16;3082796;28;20086;-71
2023/07/15 00:53:45;;;;;;;9.77;4.82;;;;;;;26.21;54.79;99730.97;3071875;28;20109;-71
2023/07/15 00:55:17;;;;;;;9.82;4.50;;;;;;;26.18;54.73;99736.66;3074741;28;20055;-71
2023/07/15 00:56:49;;;;;;;6.50;4.07;;;;;;;26.15;54.77;99745.03;3079357;28;20051;-71
2023/07/15 00:58:20;;;;;;;12.65;4.65;;;;;;;26.15;54.57;99741.50;3083603;28;20050;-71
2023/07/15 00:59:58;;;;;;;10.15;5.20;;;;;;;26.17;54.18;99731.50;3072194;28;20051;-71
2023/07/15 01:01:30;;;;;;;13.60;4.47;;;;;;;26.17;54.69;99723.47;3073567;28;20525;-71
2023/07/15 01:03:04;;;;;;;9.23;4.60;;;;;;;26.18;54.44;99736.66;3071534;28;20102;-71
2023/07/15 01:04:35;;;;;;;;;;;;;;;26.02;54.34;99742.03;3077187;28;20496;-71
2023/07/15 01:06:06;;;;;;;9.25;4.70;;;;;;;26.13;54.26;99743.53;3083532;28;19925;-71
2023/07/15 01:07:38;;;;;;;12.85;5.53;;;;;;;26.20;54.18;99737.31;3084115;28;20055;-71
2023/07/15 01:09:09;;;;;;;11.55;4.68;;;;;;;26.21;54.10;99736.31;3083822;28;20082;-71
2023/07/15 01:10:41;;;;;;;12.48;4.38;;;;;;;26.24;53.73;99735.16;3083582;28;20194;-71
2023/07/15 01:12:13;;;;;;;13.85;4.25;;;;;;;26.28;53.56;99747.13;3084085;28;20065;-71
2023/07/15 01:13:45;;;;;;;7.00;4.30;;;;;;;26.25;53.78;99740.31;3083695;28;20531;-71
2023/07/15 01:15:16;;;;;;;8.07;3.90;;;;;;;26.23;53.19;99744.97;3079989;28;20054;-71
2023/07/15 01:16:47;;;;;;;8.02;3.88;;;;;;;26.23;53.03;99744.16;3071784;29;20062;-71
2023/07/15 01:18:21;;;;;;;6.47;3.67;;;;;;;26.22;53.06;99739.81;3083405;28;20512;-71
2023/07/15 01:19:53;;;;;;;7.60;3.58;;;;;;;26.21;53.08;99739.00;3084598;28;20051;-71
2023/07/15 01:21:26;;;;;;;9.95;3.80;;;;;;;26.21;52.81;99730.16;3085981;28;20050;-71
2023/07/15 01:22:58;;;;;;;10.00;3.72;;;;;;;26.21;52.88;99743.50;3086266;28;20138;-71
2023/07/15 01:24:30;;;;;;;10.35;3.65;;;;;;;26.20;52.38;99741.81;3086312;28;20566;-71
2023/07/15 01:26:01;;;;;;;7.03;3.83;;;;;;;26.19;52.33;99751.66;3086459;28;20066;-71
2023/07/15 01:27:33;;;;;;;15.18;3.85;;;;;;;26.16;52.32;99745.84;3086313;28;20417;-71
2023/07/15 01:29:04;;;;;;;8.73;3.63;;;;;;;26.14;52.68;99742.50;3085946;28;20063;-71
2023/07/15 01:30:36;;;;;;;7.10;4.10;;;;;;;26.14;52.61;99742.50;3076234;28;20158;-71
2023/07/15 01:32:07;;;;;;;16.85;3.88;;;;;;;26.12;52.24;99741.84;3079227;28;20050;-71
2023/07/15 01:33:39;;;;;;;8.55;3.53;;;;;;;26.09;52.60;99745.72;3085858;28;20558;-71
2023/07/15 01:35:10;;;;;;;8.95;4.22;;;;;;;26.07;52.62;99748.53;3086010;28;20055;-71
2023/07/15 01:36:42;;;;;;;9.52;3.35;;;;;;;26.06;52.71;99746.03;3086059;28;20132;-71
2023/07/15 01:38:14;;;;;;;6.70;3.60;;;;;;;26.06;52.36;99751.38;3085889;28;20055;-71
2023/07/15 01:39:49;;;;;;;8.38;3.58;;;;;;;26.02;52.31;99747.38;3085991;28;20058;-71
2023/07/15 01:41:20;;;;;;;7.25;3.33;;;;;;;26.02;52.07;99750.03;3086119;28;20535;-71
2023/07/15 01:42:52;;;;;;;6.50;3.50;;;;;;;25.99;52.14;99745.88;3085706;28;20144;-71
2023/07/15 01:44:24;;;;;;;7.75;4.05;;;;;;;25.97;52.51;99752.38;3065978;29;20054;-71
2023/07/15 01:45:57;;;;;;;6.57;3.67;;;;;;;25.95;52.21;99749.06;3073999;28;20134;-71
2023/07/15 01:47:29;;;;;;;8.25;3.67;;;;;;;25.94;52.10;99752.72;3085249;28;20607;-71
2023/07/15 01:49:02;;;;;;;8.77;3.72;;;;;;;25.91;52.19;99745.91;3085888;28;20050;-71
2023/07/15 01:50:35;;;;;;;4.97;3.40;;;;;;;25.91;52.51;99753.06;3085534;28;20172;-71
2023/07/15 01:52:06;;;;;;;11.38;3.55;;;;;;;25.91;52.36;99748.59;3083761;28;20077;-71
2023/07/15 01:53:40;;;;;;;7.68;3.28;;;;;;;25.94;52.32;99755.38;3074084;28;20055;-70
2023/07/15 01:55:10;;;;;;;;;;;;;;;25.73;52.84;99761.22;3077281;28;20047;-71
2023/07/15 01:56:42;;;;;;;7.20;3.45;;;;;;;25.77;52.46;99758.06;3080593;28;19928;-71
2023/07/15 01:58:13;;;;;;;6.78;3.20;;;;;;;25.78;52.29;99759.72;3085858;28;20058;-71
2023/07/15 01:59:45;;;;;;;6.28;3.25;;;;;;;25.78;52.57;99756.22;3076380;28;20055;-72
2023/07/15 02:01:15;;;;;;;11.25;3.65;;;;;;;25.79;52.44;99760.53;3078584;28;20211;-72
2023/07/15 02:02:48;;;;;;;9.73;3.72;;;;;;;25.75;52.25;99756.56;3079987;28;20051;-71
2023/07/15 02:04:19;;;;;;;7.40;3.65;;;;;;;25.74;52.18;99762.91;3076745;28;20050;-72
2023/07/15 02:05:51;;;;;;;6.53;3.13;;;;;;;25.74;52.27;99757.56;3085912;28;20061;-71
2023/07/15 02:07:23;;;;;;;12.73;3.60;;;;;;;25.72;52.57;99760.38;3085722;28;20559;-71
2023/07/15 02:08:56;;;;;;;6.87;3.43;;;;;;;25.70;52.52;99770.38;3085345;28;20086;-71
2023/07/15 02:10:30;;;;;;;;;;;;;;;25.50;52.71;99761.09;3086124;28;20437;-71
2023/07/15 02:12:01;;;;;;;7.18;3.13;;;;;;;25.56;52.67;99763.91;3085702;28;19922;-71
2023/07/15 02:13:33;;;;;;;10.25;3.83;;;;;;;25.61;52.45;99768.72;3082157;28;20514;-71
2023/07/15 02:15:05;;;;;;;11.27;4.65;;;;;;;25.63;52.79;99772.91;3073619;28;20055;-71
2023/07/15 02:16:36;;;;;;;11.93;3.50;;;;;;;25.65;52.72;99768.25;3084425;28;20058;-71
2023/07/15 02:18:07;;;;;;;5.53;3.08;;;;;;;25.68;52.14;99774.25;3085480;28;20050;-71
2023/07/15 02:19:39;;;;;;;8.02;2.83;;;;;;;25.71;52.40;99773.91;3085697;28;20053;-71
2023/07/15 02:21:11;;;;;;;7.65;3.58;;;;;;;25.70;52.16;99777.56;3085365;28;20444;-71
2023/07/15 02:22:42;;;;;;;8.65;3.38;;;;;;;25.68;52.47;99774.25;3085302;28;20105;-71
2023/07/15 02:24:16;;;;;;;8.35;3.88;;;;;;;25.69;52.44;99781.25;3085514;28;20050;-71
2023/07/15 02:25:47;;;;;;;10.48;3.72;;;;;;;25.64;52.51;99779.91;3085598;28;20050;-71
2023/07/15 02:27:19;;;;;;;9.77;3.72;;;;;;;25.62;52.53;99781.09;3085403;28;20051;-71
2023/07/15 02:28:51;;;;;;;6.68;3.58;;;;;;;25.60;52.47;99775.06;3076109;28;20584;-71
2023/07/15 02:30:22;;;;;;;10.93;4.03;;;;;;;25.59;52.31;99782.25;3077401;28;20061;-71
2023/07/15 02:31:54;;;;;;;10.57;3.17;;;;;;;25.57;52.33;99776.22;3084709;28;20435;-71
2023/07/15 02:33:25;;;;;;;6.88;3.90;;;;;;;25.56;52.77;99776.41;3085657;28;20513;-71
2023/07/15 02:34:56;;;;;;;8.65;4.03;;;;;;;25.56;52.35;99773.75;3085239;28;20046;-71
2023/07/15 02:36:28;;;;;;;7.38;2.97;;;;;;;25.56;52.73;99777.25;3085298;28;20055;-71
2023/07/15 02:37:59;;;;;;;8.02;3.30;;;;;;;25.55;52.71;99774.72;3085623;28;20069;-71
2023/07/15 02:39:34;;;;;;;8.65;3.40;;;;;;;25.57;52.77;99778.06;3085436;28;20057;-71
2023/07/15 02:41:05;;;;;;;8.98;3.40;;;;;;;25.52;52.45;99780.41;3085024;28;20455;-71
2023/07/15 02:42:37;;;;;;;11.05;3.70;;;;;;;25.51;52.97;99779.56;3082369;28;20058;-71
2023/07/15 02:44:09;;;;;;;9.73;3.20;;;;;;;25.50;53.15;99791.25;3073191;28;20436;-71
2023/07/15 02:45:40;;;;;;;10.15;3.08;;;;;;;25.53;53.03;99788.25;3082662;28;20055;-71
2023/07/15 02:47:11;;;;;;;11.23;3.72;;;;;;;25.56;52.43;99787.09;3083730;28;20531;-71
2023/07/15 02:48:42;;;;;;;7.85;3.75;;;;;;;25.55;52.41;99786.22;3076566;28;20051;-71
2023/07/15 02:50:14;;;;;;;7.72;3.47;;;;;;;25.59;52.53;99786.75;3085162;28;20056;-71
2023/07/15 02:51:45;;;;;;;9.00;3.53;;;;;;;25.57;52.82;99791.41;3083684;28;20063;-71
2023/07/15 02:53:17;;;;;;;8.18;3.65;;;;;;;25.57;52.64;99788.75;3075721;28;20051;-71
2023/07/15 02:54:49;;;;;;;6.28;3.65;;;;;;;25.56;52.95;99792.41;3077811;28;20057;-71
2023/07/15 02:56:21;;;;;;;8.60;3.40;;;;;;;25.53;52.78;99790.91;3085217;28;20088;-70
2023/07/15 02:57:52;;;;;;;9.48;3.33;;;;;;;25.55;52.75;99788.88;3077557;28;20433;-71
2023/07/15 02:59:24;;;;;;;10.60;3.90;;;;;;;25.56;53.20;99795.91;3075354;28;20047;-71
2023/07/15 03:00:56;;;;;;;14.10;3.95;;;;;;;25.54;52.84;99789.91;3084925;28;20126;-71
2023/07/15 03:02:28;;;;;;;8.18;4.25;;;;;;;25.51;53.16;99789.41;3082041;28;20053;-71
2023/07/15 03:04:01;;;;;;;9.75;4.13;;;;;;;25.56;53.21;99798.56;3073055;28;20705;-71
2023/07/15 03:05:32;;;;;;;8.73;3.45;;;;;;;25.56;53.03;99793.25;3061036;29;20051;-71
2023/07/15 03:07:04;;;;;;;10.20;3.88;;;;;;;25.61;52.99;99801.56;3084116;28;20051;-71
2023/07/15 03:08:36;;;;;;;8.50;4.35;;;;;;;25.60;52.96;99799.91;3085157;28;20054;-71
2023/07/15 03:10:16;;;;;;;10.68;4.55;;;;;;;25.59;53.33;99800.09;3084662;28;20062;-73
2023/07/15 03:11:46;;;;;;;10.65;3.78;;;;;;;25.58;53.08;99807.22;3079537;28;20069;-70
2023/07/15 03:13:19;;;;;;;7.50;4.10;;;;;;;25.57;53.24;99808.22;3067516;28;20055;-70
2023/07/15 03:14:50;;;;;;;15.43;4.93;;;;;;;25.54;53.37;99807.75;3076687;28;20129;-70
2023/07/15 03:16:22;;;;;;;5.68;3.53;;;;;;;25.53;52.87;99806.09;3079263;28;20416;-70
2023/07/15 03:17:53;;;;;;;8.95;4.15;;;;;;;25.53;53.33;99812.25;3079441;28;20137;-70
2023/07/15 03:19:25;;;;;;;7.88;3.78;;;;;;;25.52;53.08;99810.56;3079734;28;20050;-71
2023/07/15 03:20:56;;;;;;;5.13;3.30;;;;;;;25.53;53.24;99809.56;3079709;28;20046;-71
2023/07/15 03:22:28;;;;;;;11.32;3.80;;;;;;;25.54;53.01;99810.41;3079761;28;20671;-71
2023/07/15 03:23:59;;;;;;;6.80;3.67;;;;;;;25.53;52.96;99809.56;3079512;28;20101;-71
2023/07/15 03:25:32;;;;;;;7.68;3.88;;;;;;;25.54;52.87;99811.22;3079702;28;20146;-71
2023/07/15 03:27:04;;;;;;;10.98;3.20;;;;;;;25.54;52.82;99805.06;3072275;28;20535;-71
2023/07/15 03:28:36;;;;;;;8.88;3.40;;;;;;;25.53;53.07;99808.75;3069870;28;20201;-71
2023/07/15 03:30:08;;;;;;;6.95;3.35;;;;;;;25.53;53.12;99806.91;3079293;28;20626;-71
2023/07/15 03:31:40;;;;;;;7.53;3.92;;;;;;;25.50;52.87;99809.91;3079632;28;20055;-71
2023/07/15 03:33:12;;;;;;;6.00;2.90;;;;;;;25.48;52.86;99805.72;3079386;28;20069;-71
2023/07/15 03:34:43;;;;;;;10.77;3.78;;;;;;;25.47;52.95;99804.91;3067648;28;20070;-71
2023/07/15 03:36:15;;;;;;;10.57;4.28;;;;;;;25.47;53.10;99810.25;3067327;28;20519;-71
2023/07/15 03:37:47;;;;;;;10.05;3.78;;;;;;;25.46;52.92;99813.88;3078512;28;20081;-71
2023/07/15 03:39:19;;;;;;;7.60;3.60;;;;;;;25.46;52.81;99807.72;3079411;28;20495;-71
2023/07/15 03:40:55;;;;;;;7.28;4.30;;;;;;;25.47;52.78;99807.56;3078469;28;20061;-71
2023/07/15 03:42:28;;;;;;;9.50;3.80;;;;;;;25.47;53.12;99806.72;3067352;28;20598;-71
2023/07/15 03:43:58;;;;;;;;;;;;;;;25.28;53.04;99807.88;3070429;28;20047;-71
2023/07/15 03:45:31;;;;;;;7.47;3.90;;;;;;;25.28;53.06;99800.69;3074946;28;20383;-71
2023/07/15 03:47:02;;;;;;;11.18;3.70;;;;;;;25.34;53.36;99815.19;3079245;28;20113;-71
2023/07/15 03:48:34;;;;;;;9.27;3.67;;;;;;;25.38;53.20;99813.91;3074040;28;20051;-71
2023/07/15 03:50:07;;;;;;;9.90;3.85;;;;;;;25.38;53.19;99813.91;3078952;28;20047;-71
2023/07/15 03:51:39;;;;;;;7.45;3.20;;;;;;;25.36;52.76;99814.03;3078474;28;20057;-71
2023/07/15 03:53:10;;;;;;;10.18;3.78;;;;;;;25.36;53.22;99810.56;3070148;28;20122;-71
2023/07/15 03:54:43;;;;;;;9.73;3.55;;;;;;;25.39;53.04;99815.56;3071185;28;20066;-71
2023/07/15 03:56:15;;;;;;;12.95;3.63;;;;;;;25.36;53.14;99814.03;3072308;28;20070;-71
2023/07/15 03:57:47;;;;;;;9.00;3.25;;;;;;;25.33;53.20;99814.38;3069628;28;20051;-71
2023/07/15 03:59:18;;;;;;;13.68;4.75;;;;;;;25.36;52.67;99818.53;3079161;28;20059;-71
2023/07/15 04:00:50;;;;;;;9.20;4.40;;;;;;;25.36;52.68;99822.03;3079276;28;20159;-71
2023/07/15 04:02:22;;;;;;;9.90;3.90;;;;;;;25.31;52.66;99811.03;3076660;28;20058;-71
2023/07/15 04:03:53;;;;;;;9.50;3.78;;;;;;;25.35;52.93;99817.72;3067328;28;20434;-71
2023/07/15 04:05:25;;;;;;;8.35;3.30;;;;;;;25.34;52.86;99825.88;3078518;28;20140;-71
2023/07/15 04:06:57;;;;;;;8.77;3.38;;;;;;;25.35;52.86;99824.84;3078925;28;20058;-71
2023/07/15 04:08:29;;;;;;;6.82;3.35;;;;;;;25.35;52.86;99828.38;3079048;28;20566;-71
2023/07/15 04:10:00;;;;;;;6.07;2.97;;;;;;;25.36;53.09;99826.53;3078260;28;20050;-70
2023/07/15 04:11:33;;;;;;;6.45;3.10;;;;;;;25.40;52.99;99825.22;3067332;28;20508;-71
2023/07/15 04:13:05;;;;;;;8.75;3.15;;;;;;;25.38;53.01;99825.38;3075269;28;20059;-71
2023/07/15 04:14:37;;;;;;;12.98;3.10;;;;;;;25.38;52.54;99821.91;3078793;28;20051;-71
2023/07/15 04:16:07;;;;;;;11.18;3.58;;;;;;;25.39;53.06;99827.03;3078991;28;20577;-71
2023/07/15 04:17:39;;;;;;;8.18;2.78;;;;;;;25.39;52.48;99827.03;3078886;28;20090;-71
2023/07/15 04:19:10;;;;;;;11.68;3.80;;;;;;;25.40;52.78;99825.22;3078877;28;20081;-71
2023/07/15 04:20:42;;;;;;;6.13;2.75;;;;;;;25.41;52.89;99824.22;3078907;28;20090;-71
2023/07/15 04:22:13;;;;;;;8.18;3.42;;;;;;;25.46;53.14;99823.72;3078952;28;20053;-71
2023/07/15 04:23:45;;;;;;;11.50;3.50;;;;;;;25.51;52.78;99827.56;3078952;28;20050;-71
2023/07/15 04:25:16;;;;;;;12.00;3.50;;;;;;;25.57;52.60;99834.91;3072521;28;20087;-71
2023/07/15 04:26:49;;;;;;;5.18;2.80;;;;;;;25.65;52.60;99829.56;3068288;28;20055;-71
2023/07/15 04:28:20;;;;;;;6.97;2.85;;;;;;;25.69;52.29;99840.75;3078587;28;20059;-71
2023/07/15 04:29:52;;;;;;;9.38;3.20;;;;;;;25.71;52.65;99837.91;3079045;28;20190;-71
2023/07/15 04:31:23;;;;;;;5.70;3.05;;;;;;;25.71;52.37;99841.41;3079084;28;20129;-71
2023/07/15 04:32:55;;;;;;;12.10;3.45;;;;;;;25.72;52.50;99840.41;3078645;28;20750;-71
2023/07/15 04:34:27;;;;;;;6.40;2.83;;;;;;;25.73;52.11;99835.91;3078818;28;20783;-71
2023/07/15 04:35:58;;;;;;;8.05;2.80;;;;;;;25.74;51.93;99834.91;3078715;28;20165;-71
2023/07/15 04:37:31;;;;;;;10.43;3.15;;;;;;;25.73;52.11;99841.25;3078568;28;20050;-71
2023/07/15 04:39:02;;;;;;;11.15;3.05;;;;;;;25.71;52.07;99840.59;3078681;28;20051;-71
2023/07/15 04:40:34;;;;;;;8.18;2.60;;;;;;;25.69;52.56;99847.91;3066785;28;20059;-71
2023/07/15 04:42:07;;;;;;;9.80;3.05;;;;;;;25.71;52.42;99843.25;3073936;28;20653;-71
2023/07/15 04:43:39;;;;;;;7.45;3.38;;;;;;;25.72;52.37;99848.41;3076234;28;20125;-71
2023/07/15 04:45:10;;;;;;;8.48;2.85;;;;;;;25.78;52.19;99850.41;3072714;28;20053;-71
2023/07/15 04:46:41;;;;;;;7.38;2.85;;;;;;;25.82;52.19;99842.94;3078770;28;20061;-71
2023/07/15 04:48:12;;;;;;;6.10;3.25;;;;;;;25.83;51.96;99853.44;3078593;28;20046;-71
2023/07/15 04:49:44;;;;;;;8.13;3.22;;;;;;;25.83;51.85;99852.63;3078721;28;20105;-71
2023/07/15 04:51:16;;;;;;;10.52;3.17;;;;;;;25.83;51.81;99858.78;3077561;28;20066;-71
2023/07/15 04:52:47;;;;;;;6.25;3.13;;;;;;;25.84;52.01;99854.28;3072738;28;20151;-71
2023/07/15 04:54:19;;;;;;;6.95;3.35;;;;;;;25.88;52.17;99855.59;3066647;28;20531;-71
2023/07/15 04:55:50;;;;;;;9.65;3.47;;;;;;;25.91;51.77;99857.09;3066941;28;20051;-71
2023/07/15 04:57:23;;;;;;;9.23;3.90;;;;;;;25.91;51.91;99849.09;3078622;28;20086;-71
2023/07/15 04:58:55;;;;;;;15.00;3.50;;;;;;;25.88;52.01;99855.59;3078933;28;20155;-71
2023/07/15 05:00:27;;;;;;;6.82;3.30;;;;;;;25.87;52.11;99851.28;3078748;28;20058;-71
2023/07/15 05:01:59;;;;;;;10.18;3.88;;;;;;;25.86;51.71;99853.13;3078754;28;20058;-71
2023/07/15 05:03:30;;;;;;;10.18;3.72;;;;;;;25.85;52.32;99853.28;3067041;28;20513;-71
2023/07/15 05:05:04;;;;;;;7.40;3.70;;;;;;;25.84;51.97;99851.63;3074963;28;20050;-71
2023/07/15 05:06:36;;;;;;;13.25;3.30;;;;;;;25.82;52.43;99850.94;3070956;28;20083;-71
2023/07/15 05:08:12;;;;;;;9.40;3.95;;;;;;;25.82;52.03;99846.47;3073957;28;20150;-71
2023/07/15 05:09:44;;;;;;;8.02;3.63;;;;;;;25.84;52.23;99855.09;3067773;28;20055;-71
2023/07/15 05:11:16;;;;;;;9.73;3.47;;;;;;;25.90;52.26;99864.28;3073283;28;20055;-71
2023/07/15 05:12:49;;;;;;;12.73;3.78;;;;;;;25.95;52.48;99861.97;3078642;28;20692;-71
2023/07/15 05:14:21;;;;;;;14.23;3.50;;;;;;;26.00;52.12;99864.09;3078403;28;20133;-71
2023/07/15 05:15:52;;;;;;;8.63;3.55;;;;;;;26.02;52.40;99854.09;3078691;28;20128;-71
2023/07/15 05:17:25;;;;;;;10.27;3.70;;;;;;;26.10;52.37;99857.59;3078472;28;20050;-71
2023/07/15 05:18:56;;;;;;;10.02;4.28;;;;;;;26.18;51.70;99855.94;3078759;28;20157;-71
2023/07/15 05:20:28;;;;;;;8.27;3.88;;;;;;;26.19;52.09;99858.44;3078312;28;20059;-71
2023/07/15 05:21:58;;;;;;;13.32;4.00;;;;;;;26.25;51.95;99856.94;3078549;28;20078;-71
2023/07/15 05:23:31;;;;;;;13.10;4.28;;;;;;;26.34;51.62;99863.91;3073997;28;20231;-71
2023/07/15 05:25:02;;;;;;;9.65;4.15;;;;;;;26.43;51.99;99856.72;3066894;28;20451;-71
2023/07/15 05:26:34;;;;;;;9.30;3.88;;;;;;;26.48;51.51;99857.88;3078963;28;20078;-72
2023/07/15 05:28:06;;;;;;;9.30;3.65;;;;;;;26.53;51.63;99860.06;3078590;28;20054;-71
2023/07/15 05:29:39;;;;;;;8.57;4.05;;;;;;;26.58;51.50;99856.88;3078277;28;20070;-71
2023/07/15 05:31:10;;;;;;;12.27;4.50;;;;;;;26.64;51.63;99861.53;3078827;28;20155;-71
2023/07/15 05:32:42;;;;;;;9.48;3.90;;;;;;;26.66;50.95;99862.22;3078769;28;20393;-71
2023/07/15 05:34:14;;;;;;;13.02;4.07;;;;;;;26.64;51.38;99861.53;3078643;28;20059;-71
2023/07/15 05:35:45;;;;;;;11.82;3.80;;;;;;;26.66;51.35;99862.22;3078243;28;20544;-71
2023/07/15 05:37:17;;;;;;;11.90;4.25;;;;;;;26.66;51.20;99865.72;3074461;28;20062;-71
2023/07/15 05:38:47;;;;;;;16.05;4.32;;;;;;;26.64;51.25;99862.38;3067972;28;20586;-71
2023/07/15 05:40:19;;;;;;;8.48;3.70;;;;;;;26.64;51.12;99865.03;3072088;28;20055;-71
2023/07/15 05:41:50;;;;;;;8.68;3.50;;;;;;;26.65;50.75;99864.06;3078463;28;20047;-71
2023/07/15 05:43:23;;;;;;;11.48;3.80;;;;;;;26.64;51.12;99870.38;3078251;28;20665;-71
2023/07/15 05:44:54;;;;;;;6.72;3.50;;;;;;;26.59;51.02;99869.22;3078758;28;20058;-71
2023/07/15 05:46:26;;;;;;;9.30;3.95;;;;;;;26.58;51.14;99863.06;3078163;28;20055;-71
2023/07/15 05:47:57;;;;;;;13.15;4.47;;;;;;;26.64;50.88;99874.91;3078304;28;20249;-71
2023/07/15 05:49:29;;;;;;;12.82;3.70;;;;;;;26.73;50.77;99873.88;3078755;28;20558;-71
2023/07/15 05:51:00;;;;;;;8.52;3.92;;;;;;;26.83;50.76;99874.50;3077909;28;20109;-72
2023/07/15 05:52:32;;;;;;;12.15;3.53;;;;;;;26.91;50.71;99876.31;3058502;29;20118;-71
2023/07/15 05:54:03;;;;;;;8.25;4.50;;;;;;;26.92;50.44;99878.81;3077756;28;20058;-71
2023/07/15 05:55:36;;;;;;;6.57;3.33;;;;;;;27.00;50.06;99867.25;3078604;28;20093;-71
2023/07/15 05:57:08;;;;;;;13.75;4.35;;;;;;;27.06;49.94;99866.53;3078572;28;20488;-71
2023/07/15 05:58:40;;;;;;;13.60;3.85;;;;;;;27.14;49.82;99866.50;3078366;28;20133;-71
2023/07/15 06:00:13;;;;;;;8.75;3.78;;;;;;;27.16;49.67;99869.88;3078460;28;20086;-71
2023/07/15 06:01:44;;;;;;;12.57;4.65;;;;;;;27.16;50.06;99866.38;3077260;28;20072;-72
2023/07/15 06:03:16;;;;;;;8.95;3.80;;;;;;;27.17;50.02;99868.03;3065977;28;20091;-71
2023/07/15 06:04:47;;;;;;;11.20;3.90;;;;;;;27.15;49.82;99864.69;3067512;28;20054;-70
2023/07/15 06:06:19;;;;;;;9.63;4.25;;;;;;;27.16;50.07;99874.41;3078454;28;20157;-70
2023/07/15 06:07:50;;;;;;;7.85;3.88;;;;;;;27.15;49.91;99862.03;3071600;28;20094;-71
2023/07/15 06:09:22;;;;;;;8.63;3.88;;;;;;;27.20;50.03;99862.34;3072826;28;20418;-70
2023/07/15 06:10:53;;;;;;;13.52;3.58;;;;;;;27.24;50.34;99869.00;3080423;28;20054;-70
2023/07/15 06:12:25;;;;;;;10.00;3.70;;;;;;;27.31;50.10;99875.31;3080222;28;20085;-70
2023/07/15 06:14:00;;;;;;;13.63;3.90;;;;;;;27.40;49.80;99873.44;3081563;28;20452;-70
2023/07/15 06:15:32;;;;;;;11.18;4.30;;;;;;;27.41;49.46;99870.56;3081589;28;20098;-71
2023/07/15 06:17:03;;;;;;;5.43;3.83;;;;;;;27.44;49.70;99870.22;3080349;28;20128;-71
2023/07/15 06:18:35;;;;;;;9.60;3.92;;;;;;;27.42;49.60;99872.25;3080283;28;20094;-70
2023/07/15 06:20:07;;;;;;;9.82;3.97;;;;;;;27.42;49.61;99874.09;3080619;28;20058;-71
2023/07/15 06:21:41;;;;;;;8.60;3.80;;;;;;;27.44;49.71;99869.38;3059468;29;20540;-71
2023/07/15 06:23:13;;;;;;;7.97;3.35;;;;;;;27.44;49.48;99872.88;3068497;28;20058;-71
2023/07/15 06:24:45;;;;;;;8.15;3.40;;;;;;;27.48;49.41;99869.84;3079424;28;20058;-70
2023/07/15 06:26:17;;;;;;;12.05;4.15;;;;;;;27.40;49.28;99868.91;3080695;28;20065;-71
2023/07/15 06:27:49;;;;;;;9.75;3.67;;;;;;;27.37;49.35;99866.59;3080182;28;20093;-71
2023/07/15 06:29:21;;;;;;;7.20;4.03;;;;;;;27.33;49.87;99865.28;3080048;28;20090;-71
2023/07/15 06:31:01;;;;;;;10.70;3.58;;;;;;;27.25;49.90;99870.69;3080666;28;20055;-71
2023/07/15 06:32:32;;;;;;;8.57;3.80;;;;;;;27.21;49.83;99864.00;3076421;28;20622;-71
2023/07/15 06:34:03;;;;;;;7.85;3.97;;;;;;;27.25;50.18;99861.81;3075305;28;20055;-71
2023/07/15 06:35:34;;;;;;;11.15;3.95;;;;;;;27.32;49.79;99870.81;3080214;28;20109;-71
2023/07/15 06:37:06;;;;;;;9.23;3.92;;;;;;;27.39;49.88;99861.06;3073780;28;20105;-71
2023/07/15 06:38:38;;;;;;;8.23;3.70;;;;;;;27.46;49.67;99862.03;3072967;28;20065;-71
2023/07/15 06:40:11;;;;;;;7.47;3.58;;;;;;;27.56;49.74;99864.47;3080321;28;20050;-71
2023/07/15 06:41:43;;;;;;;9.93;3.95;;;;;;;27.61;49.90;99859.41;3076342;28;20051;-71
2023/07/15 06:43:14;;;;;;;10.60;4.07;;;;;;;27.65;49.85;99864.22;3071420;28;20553;-71
2023/07/15 06:44:47;;;;;;;12.65;3.85;;;;;;;27.72;49.53;99859.00;3080205;28;20081;-71
2023/07/15 06:46:18;;;;;;;;;;;;;;;27.61;49.75;99854.06;3080606;28;20070;-71
2023/07/15 06:47:50;;;;;;;13.40;3.58;;;;;;;27.74;49.76;99854.28;3079876;28;20041;-71
2023/07/15 06:49:21;;;;;;;7.90;4.13;;;;;;;27.84;49.30;99857.59;3080256;28;20074;-71
2023/07/15 06:50:53;;;;;;;9.52;3.92;;;;;;;27.91;49.05;99855.03;3076533;28;20047;-71
2023/07/15 06:52:24;;;;;;;12.40;4.95;;;;;;;27.99;48.60;99863.00;3076931;28;20603;-71
2023/07/15 06:53:56;;;;;;;12.38;3.97;;;;;;;27.99;48.59;99857.63;3068223;28;20553;-71
2023/07/15 06:55:28;;;;;;;11.18;3.72;;;;;;;27.99;48.47;99864.84;3077930;28;20082;-71
2023/07/15 06:56:59;;;;;;;10.77;4.57;;;;;;;27.93;48.78;99868.25;3080059;28;20062;-71
2023/07/15 06:58:30;;;;;;;9.70;4.20;;;;;;;27.90;48.71;99867.59;3079870;28;20050;-71
2023/07/15 07:00:05;;;;;;;12.63;4.53;;;;;;;27.97;48.80;99867.69;3079892;28;20066;-71
2023/07/15 07:01:36;;;;;;;7.72;3.80;;;;;;;27.99;48.65;99870.19;3079689;28;20058;-72
2023/07/15 07:03:08;;;;;;;7.82;3.97;;;;;;;27.99;48.34;99868.34;3071782;28;20858;-72
2023/07/15 07:04:39;;;;;;;9.32;3.90;;;;;;;28.06;48.46;99873.81;3073183;28;20558;-72
2023/07/15 07:06:11;;;;;;;10.60;4.47;;;;;;;28.17;48.17;99870.69;3070534;28;20645;-72
2023/07/15 07:07:42;;;;;;;10.57;4.47;;;;;;;28.24;47.92;99873.47;3071912;28;20897;-72
2023/07/15 07:09:14;;;;;;;10.07;3.72;;;;;;;28.32;47.76;99879.59;3079780;28;20055;-72
2023/07/15 07:10:44;;;;;;;10.68;4.68;;;;;;;28.39;47.77;99874.31;3077458;28;20472;-73
2023/07/15 07:12:16;;;;;;;13.93;3.90;;;;;;;28.50;47.77;99878.44;3067984;28;20110;-71